METAR AND TAF INFORMATION
METAR FOR SEGS
ADDS - METARS form results

(2209 UTC 25 October 2021)
Data provider http://aviationweather.gov/metar/data/
 
METAR text: SEGS 252200Z 13017KT 9999 BKN030 23/18 Q1013 RMK A2994
Conditions at: SEGS (SAN CRISTOBAL , EC) observed 2200 UTC 25 October 2021
Temperature: 23.0°C (73°F)
Dewpoint: 18.0°C (64°F) [RH = 73%]
Pressure (altimeter): 29.91 inches Hg (1013.0 mb)
Winds: from the SE (130 degrees) at 20 MPH (17 knots; 8.7 m/s)
Visibility: 6 or more miles (10+ km)
Ceiling: 3000 feet AGL
Clouds: broken clouds at 3000 feet AGL
Weather: no significant weather observed at this time

 AIRPORT MAP

 RUNWAY INFORMATION
Runway 14 Runway length 7876 ft Runway width 115 ft
Runway elevation 145 ft Runway displaced threshold 0 ft Runway heading 144
Runway 32 Runway length 7876 ft Runway width 115 ft
Runway elevation 207 ft Runway displaced threshold 0 ft Runway heading 324

 AIRPORT FREQUENCIES
Type TWR Name TWR Frequency 122.2 MHZ

 AIRPORT NEAR NAVIGATION AIDS
Type NDB Name Galapagos Frequency 272 KHZ
Type VOR-DME Name Galapagos Frequency 112300 KHZ